sensor_id;sensor_type;location;lat;lon;timestamp;temperature;humidity
38784;DHT22;24531;45.502;12.238;2024-02-16T00:01:17;9.80;99.90
38784;DHT22;24531;45.502;12.238;2024-02-16T00:03:43;9.80;99.90
38784;DHT22;24531;45.502;12.238;2024-02-16T00:06:09;9.80;99.90
38784;DHT22;24531;45.502;12.238;2024-02-16T00:08:35;9.80;99.90
38784;DHT22;24531;45.502;12.238;2024-02-16T00:11:04;9.70;99.90
38784;DHT22;24531;45.502;12.238;2024-02-16T00:13:30;9.70;99.90
38784;DHT22;24531;45.502;12.238;2024-02-16T00:15:56;9.70;99.90
38784;DHT22;24531;45.502;12.238;2024-02-16T00:18:22;9.70;99.90
38784;DHT22;24531;45.502;12.238;2024-02-16T00:20:48;9.70;99.90
38784;DHT22;24531;45.502;12.238;2024-02-16T00:23:14;9.70;99.90
38784;DHT22;24531;45.502;12.238;2024-02-16T00:25:39;9.70;99.90
38784;DHT22;24531;45.502;12.238;2024-02-16T00:28:06;9.60;99.90
38784;DHT22;24531;45.502;12.238;2024-02-16T00:30:31;9.60;99.90
38784;DHT22;24531;45.502;12.238;2024-02-16T00:32:57;9.50;99.90
38784;DHT22;24531;45.502;12.238;2024-02-16T00:35:23;9.60;99.90
38784;DHT22;24531;45.502;12.238;2024-02-16T00:37:48;9.50;99.90
38784;DHT22;24531;45.502;12.238;2024-02-16T00:40:14;9.60;99.90
38784;DHT22;24531;45.502;12.238;2024-02-16T00:42:40;9.50;99.90
38784;DHT22;24531;45.502;12.238;2024-02-16T00:45:06;9.50;99.90
38784;DHT22;24531;45.502;12.238;2024-02-16T00:47:32;9.60;99.90
38784;DHT22;24531;45.502;12.238;2024-02-16T00:49:58;9.70;99.90
38784;DHT22;24531;45.502;12.238;2024-02-16T00:52:24;9.60;99.90
38784;DHT22;24531;45.502;12.238;2024-02-16T00:54:50;9.60;99.90
38784;DHT22;24531;45.502;12.238;2024-02-16T00:57:15;9.60;99.90
38784;DHT22;24531;45.502;12.238;2024-02-16T00:59:41;9.50;99.90
38784;DHT22;24531;45.502;12.238;2024-02-16T01:02:07;9.40;99.90
38784;DHT22;24531;45.502;12.238;2024-02-16T01:04:35;9.50;99.90
38784;DHT22;24531;45.502;12.238;2024-02-16T01:07:00;9.50;99.90
38784;DHT22;24531;45.502;12.238;2024-02-16T01:09:26;9.50;99.90
38784;DHT22;24531;45.502;12.238;2024-02-16T01:11:52;9.50;99.90
38784;DHT22;24531;45.502;12.238;2024-02-16T01:14:18;9.60;99.90
38784;DHT22;24531;45.502;12.238;2024-02-16T01:16:45;9.50;99.90
38784;DHT22;24531;45.502;12.238;2024-02-16T01:19:11;9.50;99.90
38784;DHT22;24531;45.502;12.238;2024-02-16T01:21:38;9.40;99.90
38784;DHT22;24531;45.502;12.238;2024-02-16T01:24:04;9.40;99.90
38784;DHT22;24531;45.502;12.238;2024-02-16T01:26:30;9.40;99.90
38784;DHT22;24531;45.502;12.238;2024-02-16T01:28:56;9.40;99.90
38784;DHT22;24531;45.502;12.238;2024-02-16T01:31:23;9.30;99.90
38784;DHT22;24531;45.502;12.238;2024-02-16T01:33:49;9.30;99.90
38784;DHT22;24531;45.502;12.238;2024-02-16T01:36:14;9.30;99.90
38784;DHT22;24531;45.502;12.238;2024-02-16T01:38:40;9.20;99.90
38784;DHT22;24531;45.502;12.238;2024-02-16T01:41:05;9.20;99.90
38784;DHT22;24531;45.502;12.238;2024-02-16T01:43:33;9.10;99.90
38784;DHT22;24531;45.502;12.238;2024-02-16T01:45:58;9.20;99.90
38784;DHT22;24531;45.502;12.238;2024-02-16T01:48:25;9.20;99.90
38784;DHT22;24531;45.502;12.238;2024-02-16T01:50:52;9.10;99.90
38784;DHT22;24531;45.502;12.238;2024-02-16T01:53:18;9.10;99.90
38784;DHT22;24531;45.502;12.238;2024-02-16T01:55:45;9.10;99.90
38784;DHT22;24531;45.502;12.238;2024-02-16T01:58:11;9.20;99.90
38784;DHT22;24531;45.502;12.238;2024-02-16T02:00:37;9.30;99.90
38784;DHT22;24531;45.502;12.238;2024-02-16T02:03:03;9.20;99.90
38784;DHT22;24531;45.502;12.238;2024-02-16T02:05:29;9.10;99.90
38784;DHT22;24531;45.502;12.238;2024-02-16T02:07:55;9.10;99.90
38784;DHT22;24531;45.502;12.238;2024-02-16T02:10:20;9.10;99.90
38784;DHT22;24531;45.502;12.238;2024-02-16T02:12:46;9.10;99.90
38784;DHT22;24531;45.502;12.238;2024-02-16T02:15:12;9.10;99.90
38784;DHT22;24531;45.502;12.238;2024-02-16T02:17:37;9.20;99.90
38784;DHT22;24531;45.502;12.238;2024-02-16T02:20:04;9.20;99.90
38784;DHT22;24531;45.502;12.238;2024-02-16T02:22:33;9.20;99.90
38784;DHT22;24531;45.502;12.238;2024-02-16T02:24:58;9.20;99.90
38784;DHT22;24531;45.502;12.238;2024-02-16T02:27:25;9.20;99.90
38784;DHT22;24531;45.502;12.238;2024-02-16T02:29:50;9.30;99.90
38784;DHT22;24531;45.502;12.238;2024-02-16T02:32:16;9.30;99.90
38784;DHT22;24531;45.502;12.238;2024-02-16T02:34:42;9.30;99.90
38784;DHT22;24531;45.502;12.238;2024-02-16T02:37:08;9.30;99.90
38784;DHT22;24531;45.502;12.238;2024-02-16T02:39:34;9.30;99.90
38784;DHT22;24531;45.502;12.238;2024-02-16T02:42:00;9.30;99.90
38784;DHT22;24531;45.502;12.238;2024-02-16T02:44:25;9.30;99.90
38784;DHT22;24531;45.502;12.238;2024-02-16T02:46:51;9.30;99.90
38784;DHT22;24531;45.502;12.238;2024-02-16T02:49:18;9.30;99.90
38784;DHT22;24531;45.502;12.238;2024-02-16T02:51:43;9.20;99.90
38784;DHT22;24531;45.502;12.238;2024-02-16T02:54:09;9.30;99.90
38784;DHT22;24531;45.502;12.238;2024-02-16T02:56:35;9.00;99.90
38784;DHT22;24531;45.502;12.238;2024-02-16T02:59:00;8.90;99.90
38784;DHT22;24531;45.502;12.238;2024-02-16T03:01:26;8.90;99.90
38784;DHT22;24531;45.502;12.238;2024-02-16T03:03:52;8.90;99.90
38784;DHT22;24531;45.502;12.238;2024-02-16T03:06:18;8.90;99.90
38784;DHT22;24531;45.502;12.238;2024-02-16T03:08:44;9.00;99.90
38784;DHT22;24531;45.502;12.238;2024-02-16T03:11:10;8.90;99.90
38784;DHT22;24531;45.502;12.238;2024-02-16T03:13:36;8.90;99.90
38784;DHT22;24531;45.502;12.238;2024-02-16T03:16:02;8.90;99.90
38784;DHT22;24531;45.502;12.238;2024-02-16T03:18:32;8.80;99.90
38784;DHT22;24531;45.502;12.238;2024-02-16T03:20:58;8.70;99.90
38784;DHT22;24531;45.502;12.238;2024-02-16T03:23:24;8.50;99.90
38784;DHT22;24531;45.502;12.238;2024-02-16T03:25:49;8.50;99.90
38784;DHT22;24531;45.502;12.238;2024-02-16T03:28:15;8.40;99.90
38784;DHT22;24531;45.502;12.238;2024-02-16T03:30:42;8.30;99.90
38784;DHT22;24531;45.502;12.238;2024-02-16T03:33:08;8.30;99.90
38784;DHT22;24531;45.502;12.238;2024-02-16T03:35:35;8.30;99.90
38784;DHT22;24531;45.502;12.238;2024-02-16T03:38:02;8.20;99.90
38784;DHT22;24531;45.502;12.238;2024-02-16T03:40:28;8.20;99.90
38784;DHT22;24531;45.502;12.238;2024-02-16T03:42:54;8.20;99.90
38784;DHT22;24531;45.502;12.238;2024-02-16T03:45:20;8.20;99.90
38784;DHT22;24531;45.502;12.238;2024-02-16T03:47:45;8.10;99.90
38784;DHT22;24531;45.502;12.238;2024-02-16T03:50:14;8.10;99.90
38784;DHT22;24531;45.502;12.238;2024-02-16T03:52:40;7.90;99.90
38784;DHT22;24531;45.502;12.238;2024-02-16T03:55:07;8.00;99.90
38784;DHT22;24531;45.502;12.238;2024-02-16T03:57:32;8.00;99.90
38784;DHT22;24531;45.502;12.238;2024-02-16T03:59:58;7.90;99.90
38784;DHT22;24531;45.502;12.238;2024-02-16T04:02:24;8.00;99.90
38784;DHT22;24531;45.502;12.238;2024-02-16T04:04:50;8.00;99.90
38784;DHT22;24531;45.502;12.238;2024-02-16T04:07:16;8.00;99.90
38784;DHT22;24531;45.502;12.238;2024-02-16T04:09:42;8.00;99.90
38784;DHT22;24531;45.502;12.238;2024-02-16T04:12:08;8.00;99.90
38784;DHT22;24531;45.502;12.238;2024-02-16T04:14:33;8.20;99.90
38784;DHT22;24531;45.502;12.238;2024-02-16T04:16:59;8.30;99.90
38784;DHT22;24531;45.502;12.238;2024-02-16T04:19:28;8.40;99.90
38784;DHT22;24531;45.502;12.238;2024-02-16T04:21:54;8.50;99.90
38784;DHT22;24531;45.502;12.238;2024-02-16T04:24:20;8.50;99.90
38784;DHT22;24531;45.502;12.238;2024-02-16T04:26:46;8.60;99.90
38784;DHT22;24531;45.502;12.238;2024-02-16T04:29:12;8.70;99.90
38784;DHT22;24531;45.502;12.238;2024-02-16T04:31:41;8.60;99.90
38784;DHT22;24531;45.502;12.238;2024-02-16T04:34:12;8.60;99.90
38784;DHT22;24531;45.502;12.238;2024-02-16T04:36:38;8.50;99.90
38784;DHT22;24531;45.502;12.238;2024-02-16T04:39:03;8.40;99.90
38784;DHT22;24531;45.502;12.238;2024-02-16T04:41:29;8.30;99.90
38784;DHT22;24531;45.502;12.238;2024-02-16T04:43:55;8.30;99.90
38784;DHT22;24531;45.502;12.238;2024-02-16T04:46:22;8.30;99.90
38784;DHT22;24531;45.502;12.238;2024-02-16T04:48:47;8.30;99.90
38784;DHT22;24531;45.502;12.238;2024-02-16T04:51:13;8.40;99.90
38784;DHT22;24531;45.502;12.238;2024-02-16T04:53:39;8.40;99.90
38784;DHT22;24531;45.502;12.238;2024-02-16T04:56:05;8.50;99.90
38784;DHT22;24531;45.502;12.238;2024-02-16T04:58:31;8.50;99.90
38784;DHT22;24531;45.502;12.238;2024-02-16T05:00:57;8.40;99.90
38784;DHT22;24531;45.502;12.238;2024-02-16T05:03:22;8.50;99.90
38784;DHT22;24531;45.502;12.238;2024-02-16T05:05:48;8.50;99.90
38784;DHT22;24531;45.502;12.238;2024-02-16T05:08:14;8.40;99.90
38784;DHT22;24531;45.502;12.238;2024-02-16T05:10:39;8.40;99.90
38784;DHT22;24531;45.502;12.238;2024-02-16T05:13:05;8.50;99.90
38784;DHT22;24531;45.502;12.238;2024-02-16T05:15:31;8.50;99.90
38784;DHT22;24531;45.502;12.238;2024-02-16T05:17:57;8.50;99.90
38784;DHT22;24531;45.502;12.238;2024-02-16T05:20:23;8.50;99.90
38784;DHT22;24531;45.502;12.238;2024-02-16T05:22:49;8.60;99.90
38784;DHT22;24531;45.502;12.238;2024-02-16T05:25:18;8.70;99.90
38784;DHT22;24531;45.502;12.238;2024-02-16T05:27:45;8.70;99.90
38784;DHT22;24531;45.502;12.238;2024-02-16T05:30:12;8.80;99.90
38784;DHT22;24531;45.502;12.238;2024-02-16T05:32:40;8.70;99.90
38784;DHT22;24531;45.502;12.238;2024-02-16T05:35:07;8.70;99.90
38784;DHT22;24531;45.502;12.238;2024-02-16T05:37:44;8.70;99.90
38784;DHT22;24531;45.502;12.238;2024-02-16T05:40:11;8.70;99.90
38784;DHT22;24531;45.502;12.238;2024-02-16T05:42:57;8.70;99.90
38784;DHT22;24531;45.502;12.238;2024-02-16T05:45:23;8.80;99.90
38784;DHT22;24531;45.502;12.238;2024-02-16T05:47:50;8.80;99.90
38784;DHT22;24531;45.502;12.238;2024-02-16T05:50:16;8.80;99.90
38784;DHT22;24531;45.502;12.238;2024-02-16T05:52:42;8.80;99.90
38784;DHT22;24531;45.502;12.238;2024-02-16T05:55:09;8.80;99.90
38784;DHT22;24531;45.502;12.238;2024-02-16T05:57:36;8.80;99.90
38784;DHT22;24531;45.502;12.238;2024-02-16T06:00:06;8.80;99.90
38784;DHT22;24531;45.502;12.238;2024-02-16T06:02:33;8.80;99.90
38784;DHT22;24531;45.502;12.238;2024-02-16T06:05:02;8.70;99.90
38784;DHT22;24531;45.502;12.238;2024-02-16T06:07:31;8.70;99.90
38784;DHT22;24531;45.502;12.238;2024-02-16T06:09:57;8.70;99.90
38784;DHT22;24531;45.502;12.238;2024-02-16T06:12:23;8.70;99.90
38784;DHT22;24531;45.502;12.238;2024-02-16T06:14:49;8.70;99.90
38784;DHT22;24531;45.502;12.238;2024-02-16T06:17:15;8.60;99.90
38784;DHT22;24531;45.502;12.238;2024-02-16T06:19:42;8.60;99.90
38784;DHT22;24531;45.502;12.238;2024-02-16T06:22:14;8.70;99.90
38784;DHT22;24531;45.502;12.238;2024-02-16T06:24:40;8.60;99.90
38784;DHT22;24531;45.502;12.238;2024-02-16T06:27:05;8.60;99.90
38784;DHT22;24531;45.502;12.238;2024-02-16T06:29:33;8.60;99.90
38784;DHT22;24531;45.502;12.238;2024-02-16T06:31:59;8.60;99.90
38784;DHT22;24531;45.502;12.238;2024-02-16T06:34:25;8.60;99.90
38784;DHT22;24531;45.502;12.238;2024-02-16T06:36:50;8.70;99.90
38784;DHT22;24531;45.502;12.238;2024-02-16T06:39:17;8.70;99.90
38784;DHT22;24531;45.502;12.238;2024-02-16T06:41:44;8.80;99.90
38784;DHT22;24531;45.502;12.238;2024-02-16T06:44:11;8.90;99.90
38784;DHT22;24531;45.502;12.238;2024-02-16T06:46:37;8.80;99.90
38784;DHT22;24531;45.502;12.238;2024-02-16T06:49:03;8.80;99.90
38784;DHT22;24531;45.502;12.238;2024-02-16T06:51:29;8.80;99.90
38784;DHT22;24531;45.502;12.238;2024-02-16T06:53:55;8.90;99.90
38784;DHT22;24531;45.502;12.238;2024-02-16T06:56:20;9.00;99.90
38784;DHT22;24531;45.502;12.238;2024-02-16T06:58:47;8.90;99.90
38784;DHT22;24531;45.502;12.238;2024-02-16T07:01:13;9.00;99.90
38784;DHT22;24531;45.502;12.238;2024-02-16T07:03:40;9.10;99.90
38784;DHT22;24531;45.502;12.238;2024-02-16T07:06:05;9.10;99.90
38784;DHT22;24531;45.502;12.238;2024-02-16T07:08:43;9.10;99.90
38784;DHT22;24531;45.502;12.238;2024-02-16T07:11:09;9.10;99.90
38784;DHT22;24531;45.502;12.238;2024-02-16T07:13:37;9.10;99.90
38784;DHT22;24531;45.502;12.238;2024-02-16T07:16:04;9.10;99.90
38784;DHT22;24531;45.502;12.238;2024-02-16T07:18:30;9.10;99.90
38784;DHT22;24531;45.502;12.238;2024-02-16T07:20:56;9.10;99.90
38784;DHT22;24531;45.502;12.238;2024-02-16T07:23:22;9.20;99.90
38784;DHT22;24531;45.502;12.238;2024-02-16T07:25:48;9.20;99.90
38784;DHT22;24531;45.502;12.238;2024-02-16T07:28:16;9.20;99.90
38784;DHT22;24531;45.502;12.238;2024-02-16T07:30:42;9.30;99.90
38784;DHT22;24531;45.502;12.238;2024-02-16T07:33:08;9.30;99.90
38784;DHT22;24531;45.502;12.238;2024-02-16T07:35:34;9.40;99.90
38784;DHT22;24531;45.502;12.238;2024-02-16T07:38:06;9.40;99.90
38784;DHT22;24531;45.502;12.238;2024-02-16T07:40:32;9.40;99.90
38784;DHT22;24531;45.502;12.238;2024-02-16T07:42:58;9.40;99.90
38784;DHT22;24531;45.502;12.238;2024-02-16T07:45:25;9.50;99.90
38784;DHT22;24531;45.502;12.238;2024-02-16T07:47:51;9.50;99.90
38784;DHT22;24531;45.502;12.238;2024-02-16T07:50:21;9.50;99.90
38784;DHT22;24531;45.502;12.238;2024-02-16T07:52:47;9.60;99.90
38784;DHT22;24531;45.502;12.238;2024-02-16T07:55:13;9.60;99.90
38784;DHT22;24531;45.502;12.238;2024-02-16T07:57:39;9.60;99.90
38784;DHT22;24531;45.502;12.238;2024-02-16T08:00:05;9.70;99.90
38784;DHT22;24531;45.502;12.238;2024-02-16T08:02:31;9.70;99.90
38784;DHT22;24531;45.502;12.238;2024-02-16T08:04:58;9.80;99.90
38784;DHT22;24531;45.502;12.238;2024-02-16T08:07:24;9.80;99.90
38784;DHT22;24531;45.502;12.238;2024-02-16T08:09:50;9.80;99.90
38784;DHT22;24531;45.502;12.238;2024-02-16T08:12:15;9.80;99.90
38784;DHT22;24531;45.502;12.238;2024-02-16T08:14:44;9.90;99.90
38784;DHT22;24531;45.502;12.238;2024-02-16T08:17:11;9.90;99.90
38784;DHT22;24531;45.502;12.238;2024-02-16T08:19:37;9.90;99.90
38784;DHT22;24531;45.502;12.238;2024-02-16T08:22:05;9.90;99.90
38784;DHT22;24531;45.502;12.238;2024-02-16T08:24:37;9.90;99.90
38784;DHT22;24531;45.502;12.238;2024-02-16T08:27:03;10.00;99.90
38784;DHT22;24531;45.502;12.238;2024-02-16T08:29:30;10.00;99.90
38784;DHT22;24531;45.502;12.238;2024-02-16T08:31:55;10.00;99.90
38784;DHT22;24531;45.502;12.238;2024-02-16T08:34:21;10.00;99.90
38784;DHT22;24531;45.502;12.238;2024-02-16T08:36:48;10.00;99.90
38784;DHT22;24531;45.502;12.238;2024-02-16T08:39:15;10.00;99.90
38784;DHT22;24531;45.502;12.238;2024-02-16T08:41:41;10.10;99.90
38784;DHT22;24531;45.502;12.238;2024-02-16T08:44:07;10.10;99.90
38784;DHT22;24531;45.502;12.238;2024-02-16T08:46:38;10.20;99.90
38784;DHT22;24531;45.502;12.238;2024-02-16T08:49:05;10.20;99.90
38784;DHT22;24531;45.502;12.238;2024-02-16T08:51:32;10.20;99.90
38784;DHT22;24531;45.502;12.238;2024-02-16T08:54:01;10.30;99.90
38784;DHT22;24531;45.502;12.238;2024-02-16T08:56:27;10.30;99.90
38784;DHT22;24531;45.502;12.238;2024-02-16T08:58:53;10.30;99.90
38784;DHT22;24531;45.502;12.238;2024-02-16T09:01:36;10.30;99.90
38784;DHT22;24531;45.502;12.238;2024-02-16T09:04:02;10.30;99.90
38784;DHT22;24531;45.502;12.238;2024-02-16T09:06:28;10.40;99.90
38784;DHT22;24531;45.502;12.238;2024-02-16T09:08:54;10.40;99.90
38784;DHT22;24531;45.502;12.238;2024-02-16T09:11:20;10.40;99.90
38784;DHT22;24531;45.502;12.238;2024-02-16T09:13:46;10.50;99.90
38784;DHT22;24531;45.502;12.238;2024-02-16T09:16:11;10.50;99.90
38784;DHT22;24531;45.502;12.238;2024-02-16T09:18:37;10.60;99.90
38784;DHT22;24531;45.502;12.238;2024-02-16T09:21:06;10.60;99.90
38784;DHT22;24531;45.502;12.238;2024-02-16T09:23:33;10.70;99.90
38784;DHT22;24531;45.502;12.238;2024-02-16T09:25:59;10.70;99.90
38784;DHT22;24531;45.502;12.238;2024-02-16T09:28:26;10.70;99.90
38784;DHT22;24531;45.502;12.238;2024-02-16T09:30:52;10.70;99.90
38784;DHT22;24531;45.502;12.238;2024-02-16T09:33:17;10.80;99.90
38784;DHT22;24531;45.502;12.238;2024-02-16T09:35:43;10.80;99.90
38784;DHT22;24531;45.502;12.238;2024-02-16T09:38:09;10.80;99.90
38784;DHT22;24531;45.502;12.238;2024-02-16T09:40:37;10.80;99.90
38784;DHT22;24531;45.502;12.238;2024-02-16T09:43:04;10.80;99.90
38784;DHT22;24531;45.502;12.238;2024-02-16T09:45:30;10.90;99.90
38784;DHT22;24531;45.502;12.238;2024-02-16T09:47:57;11.00;99.90
38784;DHT22;24531;45.502;12.238;2024-02-16T09:50:23;11.00;99.90
38784;DHT22;24531;45.502;12.238;2024-02-16T09:52:50;11.00;99.90
38784;DHT22;24531;45.502;12.238;2024-02-16T09:55:17;11.00;99.90
38784;DHT22;24531;45.502;12.238;2024-02-16T09:57:43;11.00;99.90
38784;DHT22;24531;45.502;12.238;2024-02-16T10:00:09;11.10;99.90
38784;DHT22;24531;45.502;12.238;2024-02-16T10:02:46;11.10;99.90
38784;DHT22;24531;45.502;12.238;2024-02-16T10:05:12;11.10;99.90
38784;DHT22;24531;45.502;12.238;2024-02-16T10:07:38;11.10;99.90
38784;DHT22;24531;45.502;12.238;2024-02-16T10:10:04;11.00;99.90
38784;DHT22;24531;45.502;12.238;2024-02-16T10:12:30;11.10;99.90
38784;DHT22;24531;45.502;12.238;2024-02-16T10:14:56;11.10;99.90
38784;DHT22;24531;45.502;12.238;2024-02-16T10:17:22;11.20;99.90
38784;DHT22;24531;45.502;12.238;2024-02-16T10:20:00;11.20;99.90
38784;DHT22;24531;45.502;12.238;2024-02-16T10:22:31;11.20;99.90
38784;DHT22;24531;45.502;12.238;2024-02-16T10:25:07;11.30;99.90
38784;DHT22;24531;45.502;12.238;2024-02-16T10:27:37;11.20;99.90
38784;DHT22;24531;45.502;12.238;2024-02-16T10:30:05;11.30;99.90
38784;DHT22;24531;45.502;12.238;2024-02-16T10:32:38;11.30;99.90
38784;DHT22;24531;45.502;12.238;2024-02-16T10:35:06;11.40;99.90
38784;DHT22;24531;45.502;12.238;2024-02-16T10:37:32;11.50;99.90
38784;DHT22;24531;45.502;12.238;2024-02-16T10:39:59;11.60;99.90
38784;DHT22;24531;45.502;12.238;2024-02-16T10:42:27;11.70;99.90
38784;DHT22;24531;45.502;12.238;2024-02-16T10:44:53;11.70;99.90
38784;DHT22;24531;45.502;12.238;2024-02-16T10:47:19;11.70;99.90
38784;DHT22;24531;45.502;12.238;2024-02-16T10:49:45;11.70;99.90
38784;DHT22;24531;45.502;12.238;2024-02-16T10:52:11;11.80;99.90
38784;DHT22;24531;45.502;12.238;2024-02-16T10:54:39;11.80;99.90
38784;DHT22;24531;45.502;12.238;2024-02-16T10:57:08;11.90;99.90
38784;DHT22;24531;45.502;12.238;2024-02-16T10:59:44;12.10;99.90
38784;DHT22;24531;45.502;12.238;2024-02-16T11:02:11;12.30;99.90
38784;DHT22;24531;45.502;12.238;2024-02-16T11:04:38;12.30;99.90
38784;DHT22;24531;45.502;12.238;2024-02-16T11:07:17;12.50;99.90
38784;DHT22;24531;45.502;12.238;2024-02-16T11:09:43;12.60;99.90
38784;DHT22;24531;45.502;12.238;2024-02-16T11:12:12;12.70;99.90
38784;DHT22;24531;45.502;12.238;2024-02-16T11:14:42;12.80;99.90
38784;DHT22;24531;45.502;12.238;2024-02-16T11:17:12;13.00;99.90
38784;DHT22;24531;45.502;12.238;2024-02-16T11:19:45;13.10;99.90
38784;DHT22;24531;45.502;12.238;2024-02-16T11:22:14;13.20;99.90
38784;DHT22;24531;45.502;12.238;2024-02-16T11:24:44;13.30;99.90
38784;DHT22;24531;45.502;12.238;2024-02-16T11:27:11;13.40;99.90
38784;DHT22;24531;45.502;12.238;2024-02-16T11:29:38;13.40;99.90
38784;DHT22;24531;45.502;12.238;2024-02-16T11:32:05;13.60;99.90
38784;DHT22;24531;45.502;12.238;2024-02-16T11:34:32;13.60;99.90
38784;DHT22;24531;45.502;12.238;2024-02-16T11:37:00;13.60;99.90
38784;DHT22;24531;45.502;12.238;2024-02-16T11:39:27;13.60;99.90
38784;DHT22;24531;45.502;12.238;2024-02-16T11:42:02;13.50;99.90
38784;DHT22;24531;45.502;12.238;2024-02-16T11:44:33;13.40;99.90
38784;DHT22;24531;45.502;12.238;2024-02-16T11:46:59;13.40;99.90
38784;DHT22;24531;45.502;12.238;2024-02-16T11:49:26;13.50;99.90
38784;DHT22;24531;45.502;12.238;2024-02-16T11:51:51;13.50;99.90
38784;DHT22;24531;45.502;12.238;2024-02-16T11:54:17;13.50;99.90
38784;DHT22;24531;45.502;12.238;2024-02-16T11:56:46;13.40;99.90
38784;DHT22;24531;45.502;12.238;2024-02-16T11:59:13;13.40;99.90
38784;DHT22;24531;45.502;12.238;2024-02-16T12:01:54;13.40;99.90
38784;DHT22;24531;45.502;12.238;2024-02-16T12:04:27;13.50;99.90
38784;DHT22;24531;45.502;12.238;2024-02-16T12:06:56;13.60;99.90
38784;DHT22;24531;45.502;12.238;2024-02-16T12:09:21;13.50;99.90
38784;DHT22;24531;45.502;12.238;2024-02-16T12:11:52;13.50;99.90
38784;DHT22;24531;45.502;12.238;2024-02-16T12:14:18;13.60;99.90
38784;DHT22;24531;45.502;12.238;2024-02-16T12:16:55;13.60;99.90
38784;DHT22;24531;45.502;12.238;2024-02-16T12:19:21;13.60;99.90
38784;DHT22;24531;45.502;12.238;2024-02-16T12:21:55;13.60;99.90
38784;DHT22;24531;45.502;12.238;2024-02-16T12:24:24;13.60;99.90
38784;DHT22;24531;45.502;12.238;2024-02-16T12:26:50;13.60;99.90
38784;DHT22;24531;45.502;12.238;2024-02-16T12:29:16;13.70;99.90
38784;DHT22;24531;45.502;12.238;2024-02-16T12:31:43;13.60;99.90
38784;DHT22;24531;45.502;12.238;2024-02-16T12:34:10;13.60;99.90
38784;DHT22;24531;45.502;12.238;2024-02-16T12:36:36;13.60;99.90
38784;DHT22;24531;45.502;12.238;2024-02-16T12:39:03;13.60;99.90
38784;DHT22;24531;45.502;12.238;2024-02-16T12:41:33;13.70;99.90
38784;DHT22;24531;45.502;12.238;2024-02-16T12:43:59;13.80;99.90
38784;DHT22;24531;45.502;12.238;2024-02-16T12:46:25;13.90;99.90
38784;DHT22;24531;45.502;12.238;2024-02-16T12:48:51;13.90;99.90
38784;DHT22;24531;45.502;12.238;2024-02-16T12:51:18;13.90;99.90
38784;DHT22;24531;45.502;12.238;2024-02-16T12:53:43;14.00;99.90
38784;DHT22;24531;45.502;12.238;2024-02-16T12:56:09;14.00;99.90
38784;DHT22;24531;45.502;12.238;2024-02-16T12:58:38;14.00;99.90
38784;DHT22;24531;45.502;12.238;2024-02-16T13:01:05;14.00;99.90
38784;DHT22;24531;45.502;12.238;2024-02-16T13:03:37;14.10;99.90
38784;DHT22;24531;45.502;12.238;2024-02-16T13:06:04;14.10;99.90
38784;DHT22;24531;45.502;12.238;2024-02-16T13:08:31;14.20;99.90
38784;DHT22;24531;45.502;12.238;2024-02-16T13:10:57;14.20;99.90
38784;DHT22;24531;45.502;12.238;2024-02-16T13:13:23;14.20;99.90
38784;DHT22;24531;45.502;12.238;2024-02-16T13:15:49;14.20;99.90
38784;DHT22;24531;45.502;12.238;2024-02-16T13:18:15;14.20;99.90
38784;DHT22;24531;45.502;12.238;2024-02-16T13:20:41;14.10;99.90
38784;DHT22;24531;45.502;12.238;2024-02-16T13:23:07;14.10;99.90
38784;DHT22;24531;45.502;12.238;2024-02-16T13:25:33;14.20;99.90
38784;DHT22;24531;45.502;12.238;2024-02-16T13:27:58;14.10;99.90
38784;DHT22;24531;45.502;12.238;2024-02-16T13:30:25;14.10;99.90
38784;DHT22;24531;45.502;12.238;2024-02-16T13:32:51;14.00;99.90
38784;DHT22;24531;45.502;12.238;2024-02-16T13:35:16;14.00;99.90
38784;DHT22;24531;45.502;12.238;2024-02-16T13:37:42;14.00;99.90
38784;DHT22;24531;45.502;12.238;2024-02-16T13:40:08;13.90;99.90
38784;DHT22;24531;45.502;12.238;2024-02-16T13:42:38;13.90;99.90
38784;DHT22;24531;45.502;12.238;2024-02-16T13:45:04;13.80;99.90
38784;DHT22;24531;45.502;12.238;2024-02-16T13:47:30;13.70;99.90
38784;DHT22;24531;45.502;12.238;2024-02-16T13:49:56;13.80;99.90
38784;DHT22;24531;45.502;12.238;2024-02-16T13:52:23;13.80;99.90
38784;DHT22;24531;45.502;12.238;2024-02-16T13:54:49;13.80;99.90
38784;DHT22;24531;45.502;12.238;2024-02-16T13:57:15;13.80;99.90
38784;DHT22;24531;45.502;12.238;2024-02-16T13:59:45;13.80;99.90
38784;DHT22;24531;45.502;12.238;2024-02-16T14:02:11;13.70;99.90
38784;DHT22;24531;45.502;12.238;2024-02-16T14:04:37;13.80;99.90
38784;DHT22;24531;45.502;12.238;2024-02-16T14:07:03;13.80;99.90
38784;DHT22;24531;45.502;12.238;2024-02-16T14:09:29;13.80;99.90
38784;DHT22;24531;45.502;12.238;2024-02-16T14:11:55;13.80;99.90
38784;DHT22;24531;45.502;12.238;2024-02-16T14:14:23;13.80;99.90
38784;DHT22;24531;45.502;12.238;2024-02-16T14:16:49;13.80;99.90
38784;DHT22;24531;45.502;12.238;2024-02-16T14:19:15;13.90;99.90
38784;DHT22;24531;45.502;12.238;2024-02-16T14:21:40;13.80;99.90
38784;DHT22;24531;45.502;12.238;2024-02-16T14:24:08;13.80;99.90
38784;DHT22;24531;45.502;12.238;2024-02-16T14:26:35;13.80;99.90
38784;DHT22;24531;45.502;12.238;2024-02-16T14:29:01;13.80;99.90
38784;DHT22;24531;45.502;12.238;2024-02-16T14:31:26;13.80;99.90
38784;DHT22;24531;45.502;12.238;2024-02-16T14:33:52;13.80;99.90
38784;DHT22;24531;45.502;12.238;2024-02-16T14:36:17;13.70;99.90
38784;DHT22;24531;45.502;12.238;2024-02-16T14:38:43;13.60;99.90
38784;DHT22;24531;45.502;12.238;2024-02-16T14:41:09;13.60;99.90
38784;DHT22;24531;45.502;12.238;2024-02-16T14:43:35;13.60;99.90
38784;DHT22;24531;45.502;12.238;2024-02-16T14:46:01;13.60;99.90
38784;DHT22;24531;45.502;12.238;2024-02-16T14:48:29;13.50;99.90
38784;DHT22;24531;45.502;12.238;2024-02-16T14:50:55;13.50;99.90
38784;DHT22;24531;45.502;12.238;2024-02-16T14:53:21;13.50;99.90
38784;DHT22;24531;45.502;12.238;2024-02-16T14:55:49;13.50;99.90
38784;DHT22;24531;45.502;12.238;2024-02-16T14:58:18;13.50;99.90
38784;DHT22;24531;45.502;12.238;2024-02-16T15:00:43;13.50;99.90
38784;DHT22;24531;45.502;12.238;2024-02-16T15:03:12;13.40;99.90
38784;DHT22;24531;45.502;12.238;2024-02-16T15:05:39;13.40;99.90
38784;DHT22;24531;45.502;12.238;2024-02-16T15:08:06;13.40;99.90
38784;DHT22;24531;45.502;12.238;2024-02-16T15:10:32;13.30;99.90
38784;DHT22;24531;45.502;12.238;2024-02-16T15:12:57;13.30;99.90
38784;DHT22;24531;45.502;12.238;2024-02-16T15:15:23;13.20;99.90
38784;DHT22;24531;45.502;12.238;2024-02-16T15:17:49;13.10;99.90
38784;DHT22;24531;45.502;12.238;2024-02-16T15:20:15;13.10;99.90
38784;DHT22;24531;45.502;12.238;2024-02-16T15:22:40;13.00;99.90